Time;durP1;ratioP1;P1;durP2;ratioP2;P2;SDS_P1;SDS_P2;PMS_P1;PMS_P2;Temp;Humidity;BMP_temperature;BMP_pressure;BME280_temperature;BME280_humidity;BME280_pressure;Samples;Min_cycle;Max_cycle;Signal;HPM_P1;HPM_P2
2022/11/06 00:00:46;;;;;;;114.43;55.95;;;;;;;12.49;64.28;99378.81;3134501;28;20118;-72
2022/11/06 00:02:18;;;;;;;115.22;57.92;;;;;;;12.48;64.50;99380.59;3139596;28;20048;-72
2022/11/06 00:03:52;;;;;;;114.53;54.55;;;;;;;12.50;64.01;99383.94;3141542;28;20056;-71
2022/11/06 00:07:14;;;;;;;117.25;57.58;;;;;;;12.50;64.54;99372.66;3134091;28;20814;-72
2022/11/06 00:08:46;;;;;;;117.07;56.03;;;;;;;12.50;64.03;99368.28;3134579;28;20052;-72
2022/11/06 00:10:18;;;;;;;118.43;59.05;;;;;;;12.49;64.07;99363.16;3146511;28;20051;-72
2022/11/06 00:11:51;;;;;;;117.45;59.67;;;;;;;12.46;64.39;99363.34;3134819;28;20482;-72
2022/11/06 00:13:24;;;;;;;123.88;58.22;;;;;;;12.50;63.99;99370.88;3134260;28;20158;-72
2022/11/06 00:14:56;;;;;;;117.25;56.40;;;;;;;12.47;64.33;99368.47;3133747;28;20294;-72
2022/11/06 00:16:28;;;;;;;121.53;56.92;;;;;;;12.51;64.16;99375.19;3134055;28;20084;-71
2022/11/06 00:18:00;;;;;;;130.43;57.70;;;;;;;12.52;64.41;99378.63;3134251;28;20052;-70
2022/11/06 00:19:32;;;;;;;114.43;56.95;;;;;;;12.50;64.11;99370.88;3134649;28;20595;-70
2022/11/06 00:21:09;;;;;;;116.03;56.95;;;;;;;12.50;64.24;99375.28;3134475;28;20079;-72
2022/11/06 00:22:40;;;;;;;120.72;58.25;;;;;;;12.45;64.64;99372.09;3134392;28;20410;-72
2022/11/06 00:24:14;;;;;;;124.15;58.95;;;;;;;12.41;64.60;99361.00;3134633;28;20067;-71
2022/11/06 00:25:46;;;;;;;124.70;58.97;;;;;;;12.34;64.81;99348.41;3135554;28;20052;-71
2022/11/06 00:27:18;;;;;;;122.63;57.38;;;;;;;12.15;64.84;99322.53;3134258;28;20394;-71
2022/11/06 00:28:50;;;;;;;135.88;60.80;;;;;;;12.34;64.81;99357.06;3134648;28;20064;-71
2022/11/06 00:30:22;;;;;;;133.75;59.88;;;;;;;12.36;64.92;99359.59;3140706;28;20581;-72
2022/11/06 00:31:54;;;;;;;121.57;58.58;;;;;;;12.37;64.96;99364.72;3142355;28;20052;-70
2022/11/06 00:33:26;;;;;;;115.15;56.47;;;;;;;12.37;64.57;99361.28;3148574;28;20055;-71
2022/11/06 00:34:58;;;;;;;115.70;56.53;;;;;;;12.38;65.07;99353.34;3147460;28;20422;-70
2022/11/06 00:36:32;;;;;;;122.40;57.17;;;;;;;12.37;64.92;99362.13;3133865;28;20422;-70
2022/11/06 00:38:04;;;;;;;121.30;57.97;;;;;;;12.23;64.98;99339.44;3142919;28;20041;-71
2022/11/06 00:39:36;;;;;;;115.82;57.33;;;;;;;12.31;65.39;99359.03;3141628;28;20052;-73
2022/11/06 00:41:10;;;;;;;119.25;56.03;;;;;;;12.32;65.06;99353.72;3134208;28;20056;-73
2022/11/06 00:42:42;;;;;;;108.43;55.05;;;;;;;12.29;65.30;99344.28;3134054;28;20067;-71
2022/11/06 00:44:14;;;;;;;117.88;55.22;;;;;;;12.35;65.28;99355.31;3134656;28;20107;-71
2022/11/06 00:45:46;;;;;;;123.80;58.67;;;;;;;12.36;65.31;99356.97;3134563;28;20060;-74
2022/11/06 00:47:18;;;;;;;116.30;57.33;;;;;;;12.38;64.92;99360.34;3139933;28;20586;-73
2022/11/06 00:48:50;;;;;;;114.55;57.25;;;;;;;12.38;65.24;99357.72;3138290;28;20582;-71
2022/11/06 00:50:25;;;;;;;112.85;56.35;;;;;;;12.38;65.26;99361.19;3133870;28;20497;-72
2022/11/06 00:51:58;;;;;;;117.13;55.88;;;;;;;12.35;65.28;99361.34;3133831;28;20075;-72
2022/11/06 00:53:30;;;;;;;120.90;57.20;;;;;;;12.32;65.53;99371.97;3133754;28;20584;-72
2022/11/06 00:55:02;;;;;;;117.38;56.08;;;;;;;12.30;65.27;99371.22;3137562;28;20048;-72
2022/11/06 00:56:35;;;;;;;115.90;56.22;;;;;;;12.29;65.58;99361.72;3137464;28;20045;-71
2022/11/06 00:58:07;;;;;;;116.25;56.60;;;;;;;12.17;65.11;99349.41;3139307;28;20044;-72
2022/11/06 00:59:39;;;;;;;126.22;57.40;;;;;;;12.23;65.43;99362.09;3141388;28;20510;-71
2022/11/06 01:01:13;;;;;;;123.88;55.85;;;;;;;12.25;65.31;99362.84;3140801;28;20496;-71
2022/11/06 01:02:45;;;;;;;109.30;53.63;;;;;;;12.23;65.62;99365.53;3148082;28;20055;-72
2022/11/06 01:04:18;;;;;;;112.57;54.30;;;;;;;12.22;65.34;99366.47;3153687;28;20062;-72
2022/11/06 01:05:50;;;;;;;113.53;53.95;;;;;;;12.19;65.47;99371.03;3145320;28;20060;-73
2022/11/06 01:07:24;;;;;;;110.32;51.83;;;;;;;12.13;65.71;99374.84;3144925;28;20053;-72
2022/11/06 01:08:56;;;;;;;109.97;53.35;;;;;;;12.04;65.90;99381.44;3147374;28;20080;-69
2022/11/06 01:10:27;;;;;;;116.07;53.22;;;;;;;11.95;65.96;99368.06;3158906;28;20082;-69
2022/11/06 01:12:00;;;;;;;102.53;50.25;;;;;;;11.98;66.21;99376.56;3146272;28;20057;-72
2022/11/06 01:13:32;;;;;;;104.47;51.15;;;;;;;11.99;65.82;99375.63;3145952;28;20052;-70
2022/11/06 01:15:04;;;;;;;106.85;49.67;;;;;;;11.98;65.88;99373.97;3146351;28;20534;-71
2022/11/06 01:16:35;;;;;;;101.50;47.75;;;;;;;11.92;66.13;99366.50;3146305;28;20102;-71
2022/11/06 01:18:07;;;;;;;104.30;48.17;;;;;;;11.97;65.84;99372.25;3146034;28;20497;-70
2022/11/06 01:19:39;;;;;;;99.20;48.25;;;;;;;11.98;65.99;99373.97;3146149;28;20056;-70
2022/11/06 01:21:14;;;;;;;102.40;48.08;;;;;;;11.73;65.85;99340.56;3146108;28;20131;-71
2022/11/06 01:22:47;;;;;;;100.40;48.10;;;;;;;11.98;65.62;99367.88;3146397;28;20045;-71
2022/11/06 01:24:20;;;;;;;100.55;50.97;;;;;;;11.99;65.78;99372.19;3146298;28;20045;-72
2022/11/06 01:26:00;;;;;;;98.30;48.78;;;;;;;12.00;65.99;99373.88;3145580;28;20140;-70
2022/11/06 01:27:31;;;;;;;103.35;48.92;;;;;;;11.99;65.92;99374.81;3158091;28;20052;-70
2022/11/06 01:29:04;;;;;;;100.78;49.13;;;;;;;11.96;65.99;99386.25;3146283;28;20052;-70
2022/11/06 01:30:37;;;;;;;101.00;48.70;;;;;;;11.60;66.02;99332.63;3145715;28;20048;-70
2022/11/06 01:32:08;;;;;;;106.93;50.10;;;;;;;11.87;66.08;99378.13;3152908;28;20048;-70
2022/11/06 01:33:41;;;;;;;107.93;51.17;;;;;;;11.50;66.08;99317.56;3161232;28;20105;-71
2022/11/06 01:35:13;;;;;;;99.20;49.72;;;;;;;11.81;66.31;99371.44;3154483;28;20090;-70
2022/11/06 01:36:45;;;;;;;98.03;50.90;;;;;;;11.73;66.31;99363.22;3144795;28;20064;-70
2022/11/06 01:38:18;;;;;;;104.68;49.17;;;;;;;11.79;66.19;99379.34;3144824;28;20283;-70
2022/11/06 01:39:50;;;;;;;106.07;48.95;;;;;;;11.78;66.59;99376.84;3152644;28;20044;-70
2022/11/06 01:41:23;;;;;;;97.40;49.92;;;;;;;11.79;66.29;99368.91;3145085;28;20492;-70
2022/11/06 01:42:55;;;;;;;;;;;;;;;11.73;66.26;99360.59;3145037;28;20097;-70
2022/11/06 01:45:15;;;;;;;101.75;48.45;;;;;;;11.70;66.34;99364.22;3144992;28;19935;-71
2022/11/06 01:46:47;;;;;;;105.50;49.03;;;;;;;11.73;66.46;99363.22;3142603;28;20087;-70
2022/11/06 01:48:21;;;;;;;110.38;51.03;;;;;;;11.73;66.16;99363.22;3153564;28;20051;-70
2022/11/06 01:49:56;;;;;;;102.63;51.10;;;;;;;11.37;66.17;99304.38;3144935;28;20106;-70
2022/11/06 01:51:31;;;;;;;104.05;50.35;;;;;;;11.81;65.91;99371.44;3144845;28;20144;-71
2022/11/06 01:53:04;;;;;;;109.82;48.85;;;;;;;11.82;65.87;99368.75;3151906;28;20044;-71
2022/11/06 01:54:41;;;;;;;109.63;51.10;;;;;;;11.83;66.22;99373.03;3145622;28;20044;-71
2022/11/06 01:56:15;;;;;;;102.03;50.83;;;;;;;11.80;66.42;99380.19;3149047;28;20078;-71
2022/11/06 01:57:48;;;;;;;106.65;49.25;;;;;;;11.78;66.07;99374.22;3146551;28;20795;-71
2022/11/06 01:59:24;;;;;;;103.80;51.42;;;;;;;11.76;66.23;99374.31;3149680;28;20127;-71
2022/11/06 02:00:56;;;;;;;107.55;52.20;;;;;;;11.50;66.44;99344.47;3150542;28;20056;-72
2022/11/06 02:02:27;;;;;;;104.78;49.42;;;;;;;11.68;66.33;99375.66;3154471;28;20044;-72
2022/11/06 02:04:15;;;;;;;104.50;51.03;;;;;;;11.60;66.55;99368.28;3151183;28;20179;-72
2022/11/06 02:05:48;;;;;;;98.13;49.13;;;;;;;11.43;66.74;99353.56;3145197;28;20102;-72
2022/11/06 02:07:19;;;;;;;110.15;50.95;;;;;;;11.68;66.80;99378.28;3145506;28;20102;-72
2022/11/06 02:08:51;;;;;;;105.75;49.53;;;;;;;11.66;66.61;99365.34;3146437;28;20064;-71
2022/11/06 02:10:24;;;;;;;101.88;49.70;;;;;;;11.71;66.61;99368.53;3157983;28;20055;-72
2022/11/06 02:12:05;;;;;;;102.88;50.17;;;;;;;11.72;66.59;99375.41;3145106;28;20056;-72
2022/11/06 02:13:47;;;;;;;103.38;48.72;;;;;;;11.74;66.21;99364.88;3145507;28;20052;-72
2022/11/06 02:15:28;;;;;;;100.20;48.53;;;;;;;11.71;66.21;99359.84;3145471;28;20048;-71
2022/11/06 02:17:07;;;;;;;107.50;49.38;;;;;;;11.46;66.28;99316.06;3145775;28;20057;-71
2022/11/06 02:18:58;;;;;;;101.60;50.28;;;;;;;11.73;66.13;99368.44;3145395;28;20041;-72
2022/11/06 02:20:35;;;;;;;104.25;50.42;;;;;;;11.68;66.38;99354.81;3145625;28;20483;-72
2022/11/06 02:22:38;;;;;;;107.00;50.35;;;;;;;11.73;66.21;99368.44;3145124;28;20052;-72
2022/11/06 02:24:29;;;;;;;96.25;49.22;;;;;;;11.73;66.47;99371.03;3156873;28;20091;-71
2022/11/06 02:26:15;;;;;;;103.32;49.95;;;;;;;11.72;66.29;99377.19;3145630;28;20052;-71
2022/11/06 02:27:56;;;;;;;104.10;48.97;;;;;;;11.70;66.26;99373.81;3145368;28;20514;-71
2022/11/06 02:29:33;;;;;;;98.53;47.90;;;;;;;11.67;66.66;99372.22;3145553;28;20053;-71
2022/11/06 02:31:12;;;;;;;98.78;48.42;;;;;;;11.70;66.24;99384.25;3144928;28;20060;-71
2022/11/06 02:32:48;;;;;;;97.78;47.80;;;;;;;11.71;66.15;99370.28;3155672;28;20044;-71
2022/11/06 02:34:24;;;;;;;93.72;46.53;;;;;;;11.64;66.50;99353.31;3156307;28;20436;-71
2022/11/06 02:36:01;;;;;;;102.38;47.80;;;;;;;11.72;66.35;99364.16;3145544;28;20056;-71
2022/11/06 02:37:37;;;;;;;95.38;49.30;;;;;;;11.72;66.53;99378.03;3145042;28;20083;-71
2022/11/06 02:39:12;;;;;;;102.47;48.20;;;;;;;11.68;66.53;99370.44;3151146;28;20389;-71
2022/11/06 02:40:51;;;;;;;100.18;48.38;;;;;;;11.70;66.71;99374.66;3146047;28;20436;-71
2022/11/06 02:42:24;;;;;;;109.25;47.42;;;;;;;11.65;66.43;99368.00;3144946;28;20056;-71
2022/11/06 02:43:58;;;;;;;106.07;50.42;;;;;;;11.71;66.41;99378.97;3145194;28;20379;-72
2022/11/06 02:45:32;;;;;;;112.80;48.05;;;;;;;11.70;66.40;99369.44;3144879;28;20048;-71
2022/11/06 02:47:08;;;;;;;105.55;48.22;;;;;;;11.69;66.72;99377.38;3155805;28;20124;-71
2022/11/06 02:48:45;;;;;;;96.45;47.80;;;;;;;11.64;66.58;99382.00;3150985;28;20049;-71
2022/11/06 02:50:22;;;;;;;104.50;47.38;;;;;;;11.59;67.16;99375.28;3144998;28;20374;-71
2022/11/06 02:51:58;;;;;;;91.97;46.95;;;;;;;11.56;67.28;99377.19;3145024;28;20133;-71
2022/11/06 02:53:32;;;;;;;89.15;47.17;;;;;;;11.51;67.34;99372.25;3144932;28;20510;-71
2022/11/06 02:55:11;;;;;;;94.53;45.65;;;;;;;11.56;67.12;99385.84;3145091;28;20094;-71
2022/11/06 02:56:46;;;;;;;93.20;47.30;;;;;;;11.55;67.04;99381.56;3144954;28;20056;-71
2022/11/06 02:58:22;;;;;;;98.97;47.30;;;;;;;11.51;66.91;99369.66;3154255;28;20428;-71
2022/11/06 03:00:02;;;;;;;100.18;46.65;;;;;;;11.59;67.05;99385.72;3144831;28;20052;-71
2022/11/06 03:01:38;;;;;;;97.82;46.28;;;;;;;11.57;67.02;99366.69;3152546;28;20075;-71
2022/11/06 03:03:17;;;;;;;99.60;48.20;;;;;;;11.63;67.18;99368.13;3155403;28;20474;-71
2022/11/06 03:04:54;;;;;;;101.88;46.13;;;;;;;11.63;67.22;99383.75;3145082;28;20071;-71
2022/11/06 03:06:32;;;;;;;95.32;47.53;;;;;;;11.63;67.07;99383.75;3145029;28;20114;-71
2022/11/06 03:08:10;;;;;;;89.57;46.53;;;;;;;11.29;66.79;99328.28;3144707;28;20044;-72
2022/11/06 03:09:44;;;;;;;95.82;46.70;;;;;;;11.60;67.16;99378.72;3152702;28;20044;-72
2022/11/06 03:11:21;;;;;;;106.95;47.50;;;;;;;11.63;67.11;99383.75;3150484;28;20064;-73
2022/11/06 03:12:55;;;;;;;98.40;47.50;;;;;;;11.61;67.14;99378.63;3144711;28;20048;-73
2022/11/06 03:14:32;;;;;;;106.72;46.80;;;;;;;11.63;67.06;99385.53;3144770;28;20044;-72
2022/11/06 03:16:15;;;;;;;102.57;48.30;;;;;;;11.61;67.52;99386.44;3143955;28;20044;-73
2022/11/06 03:17:52;;;;;;;104.78;46.95;;;;;;;11.53;67.49;99373.00;3144562;28;20059;-70
2022/11/06 03:19:30;;;;;;;94.43;47.22;;;;;;;11.56;67.48;99385.84;3149481;28;20052;-71
2022/11/06 03:21:07;;;;;;;96.97;47.92;;;;;;;11.53;67.53;99383.41;3144793;28;20166;-71
2022/11/06 03:22:45;;;;;;;92.03;46.28;;;;;;;11.48;67.77;99380.25;3144701;28;20094;-71
2022/11/06 03:24:19;;;;;;;95.05;46.83;;;;;;;11.46;68.18;99379.47;3144460;28;20155;-71
2022/11/06 03:25:55;;;;;;;98.97;47.97;;;;;;;11.47;68.16;99381.16;3144626;28;20053;-71
2022/11/06 03:27:35;;;;;;;91.05;45.42;;;;;;;11.46;67.85;99382.09;3144731;28;20106;-71
2022/11/06 03:29:13;;;;;;;100.47;48.00;;;;;;;11.44;67.78;99381.31;3144836;28;20099;-71
2022/11/06 03:30:50;;;;;;;95.30;45.65;;;;;;;11.48;67.73;99377.63;3144620;28;20483;-70
2022/11/06 03:32:30;;;;;;;100.75;45.05;;;;;;;11.50;67.85;99380.16;3153401;28;20075;-70
2022/11/06 03:34:05;;;;;;;93.25;46.10;;;;;;;11.49;67.57;99378.47;3144832;28;20122;-71
2022/11/06 03:35:43;;;;;;;93.07;47.10;;;;;;;11.54;67.68;99387.72;3143776;28;20117;-70
2022/11/06 03:37:21;;;;;;;95.80;45.83;;;;;;;11.53;68.04;99387.78;3143785;28;20048;-71
2022/11/06 03:38:59;;;;;;;90.38;45.22;;;;;;;11.49;67.75;99389.75;3145962;28;20044;-71
2022/11/06 03:40:37;;;;;;;93.70;44.72;;;;;;;11.53;67.77;99377.38;3155115;28;20089;-71
2022/11/06 03:42:14;;;;;;;95.30;45.85;;;;;;;11.52;67.89;99381.75;3144499;28;20053;-71
2022/11/06 03:43:49;;;;;;;94.28;45.65;;;;;;;11.50;68.08;99380.97;3144040;28;20114;-70
2022/11/06 03:45:24;;;;;;;91.97;45.35;;;;;;;11.47;68.11;99388.97;3148159;28;20101;-71
2022/11/06 03:47:07;;;;;;;92.57;46.17;;;;;;;11.39;68.06;99373.78;3147043;28;20692;-71
2022/11/06 03:48:43;;;;;;;88.38;44.47;;;;;;;11.47;68.17;99383.75;3144428;28;20480;-71
2022/11/06 03:50:23;;;;;;;90.32;44.00;;;;;;;11.47;68.12;99375.94;3144436;28;20509;-71
2022/11/06 03:52:00;;;;;;;84.15;43.85;;;;;;;11.44;68.23;99376.09;3144463;28;20052;-70
2022/11/06 03:53:37;;;;;;;88.13;43.95;;;;;;;11.44;68.43;99376.09;3144533;28;20055;-72
2022/11/06 03:55:14;;;;;;;95.75;45.65;;;;;;;11.45;68.68;99382.19;3144010;28;20056;-70
2022/11/06 03:56:50;;;;;;;90.65;44.42;;;;;;;11.43;68.89;99386.63;3143253;28;20055;-70
2022/11/06 03:58:25;;;;;;;92.75;45.55;;;;;;;11.36;68.93;99370.50;3142928;28;20097;-70
2022/11/06 04:00:02;;;;;;;98.07;44.65;;;;;;;11.35;68.85;99376.63;3145854;28;20551;-71
2022/11/06 04:01:39;;;;;;;94.55;45.70;;;;;;;11.38;69.06;99374.69;3156641;28;20067;-71
2022/11/06 04:03:16;;;;;;;89.78;47.05;;;;;;;11.39;68.97;99375.53;3147507;28;20048;-69
2022/11/06 04:04:54;;;;;;;96.05;46.25;;;;;;;11.36;68.67;99371.34;3153303;28;20109;-70
2022/11/06 04:06:31;;;;;;;88.60;44.47;;;;;;;11.38;68.67;99376.44;3146001;28;20049;-69
2022/11/06 04:14:00;;;;;;;85.97;41.25;;;;;;;11.13;69.77;99383.00;3143406;28;19921;-69
2022/11/06 04:15:39;;;;;;;89.82;42.95;;;;;;;11.14;69.45;99386.44;3150935;28;20052;-68
2022/11/06 04:17:14;;;;;;;79.05;42.28;;;;;;;11.13;69.72;99375.19;3155651;28;20052;-69
2022/11/06 04:18:46;;;;;;;92.55;42.80;;;;;;;11.22;69.69;99388.66;3143682;28;20464;-68
2022/11/06 04:22:35;;;;;;;85.45;43.00;;;;;;;11.26;69.32;99390.16;3116750;28;20060;-69
2022/11/06 04:28:15;;;;;;;86.00;41.63;;;;;;;11.32;69.17;99388.06;3144046;28;20422;-69
2022/11/06 04:30:01;;;;;;;84.90;40.53;;;;;;;11.32;69.29;99382.00;3145508;28;20106;-69
2022/11/06 04:31:39;;;;;;;90.40;41.90;;;;;;;11.36;69.02;99392.19;3147433;28;20139;-70
2022/11/06 04:33:17;;;;;;;87.18;42.80;;;;;;;11.41;69.18;99404.13;3153108;28;20054;-70
2022/11/06 04:35:00;;;;;;;85.15;41.28;;;;;;;11.34;68.88;99380.16;3146578;28;20507;-70
2022/11/06 04:36:43;;;;;;;87.15;41.35;;;;;;;11.37;68.78;99375.63;3146771;28;20109;-69
2022/11/06 04:38:26;;;;;;;82.30;41.60;;;;;;;11.42;69.02;99390.16;3146335;28;20056;-69
2022/11/06 04:40:08;;;;;;;92.28;43.22;;;;;;;11.37;69.23;99385.22;3153806;28;20105;-70
2022/11/06 04:41:45;;;;;;;87.35;43.88;;;;;;;11.38;69.15;99390.31;3153868;28;20056;-70
2022/11/06 04:43:25;;;;;;;84.53;42.20;;;;;;;11.29;69.08;99369.97;3146161;28;20044;-70
2022/11/06 04:45:03;;;;;;;88.43;44.15;;;;;;;11.41;69.10;99378.88;3146463;28;20057;-70
2022/11/06 04:46:39;;;;;;;94.25;44.20;;;;;;;11.33;69.06;99371.50;3151161;28;20054;-69
2022/11/06 04:48:11;;;;;;;91.53;43.17;;;;;;;11.46;69.20;99392.53;3146517;28;20052;-70
2022/11/06 04:49:44;;;;;;;93.07;43.92;;;;;;;11.44;69.27;99386.53;3147304;28;20421;-70
2022/11/06 04:51:21;;;;;;;87.57;43.53;;;;;;;11.47;68.86;99388.13;3146593;28;20057;-70
2022/11/06 04:52:55;;;;;;;89.00;44.45;;;;;;;11.48;68.91;99400.28;3146307;28;20487;-70
2022/11/06 04:54:27;;;;;;;92.65;43.55;;;;;;;11.48;68.90;99395.88;3146084;28;20052;-71
2022/11/06 04:56:02;;;;;;;87.07;44.88;;;;;;;11.46;69.11;99397.72;3145938;28;20056;-69
2022/11/06 04:57:34;;;;;;;88.45;43.60;;;;;;;11.48;69.09;99402.88;3146208;28;20497;-68
2022/11/06 04:59:06;;;;;;;101.10;46.78;;;;;;;11.51;69.07;99402.72;3146174;28;20620;-69
2022/11/06 05:00:42;;;;;;;87.70;43.17;;;;;;;11.50;69.01;99404.44;3152418;28;20401;-70
2022/11/06 05:02:13;;;;;;;91.60;45.50;;;;;;;11.48;68.91;99393.28;3154847;28;20918;-69
2022/11/06 05:03:45;;;;;;;94.38;43.97;;;;;;;11.49;69.11;99397.56;3154047;28;20059;-69
2022/11/06 05:05:17;;;;;;;86.18;43.78;;;;;;;11.52;69.14;99397.38;3146055;28;20041;-69
2022/11/06 05:06:49;;;;;;;91.15;44.58;;;;;;;11.19;68.88;99336.69;3146039;28;20055;-68
2022/11/06 05:08:22;;;;;;;88.00;44.00;;;;;;;11.51;68.81;99387.06;3146438;28;20048;-69
2022/11/06 05:09:54;;;;;;;87.65;43.47;;;;;;;11.50;69.00;99394.03;3156002;28;20047;-69
2022/11/06 05:11:26;;;;;;;92.93;44.22;;;;;;;11.53;69.22;99403.44;3155001;28;20055;-69
2022/11/06 05:12:58;;;;;;;91.07;44.42;;;;;;;11.50;69.19;99403.63;3151766;28;20101;-69
2022/11/06 05:14:31;;;;;;;87.10;44.60;;;;;;;11.47;69.50;99409.84;3146159;28;20040;-69
2022/11/06 05:16:03;;;;;;;82.90;43.17;;;;;;;11.42;69.39;99411.88;3146101;28;20044;-70
2022/11/06 05:17:35;;;;;;;89.60;44.73;;;;;;;11.37;69.54;99416.50;3146047;28;20173;-70
2022/11/06 05:19:07;;;;;;;91.03;42.85;;;;;;;11.36;69.67;99418.25;3146077;28;20044;-69
2022/11/06 05:20:39;;;;;;;87.50;44.42;;;;;;;11.34;69.55;99412.28;3146054;28;20048;-69
2022/11/06 05:24:01;;;;;;;91.55;44.10;;;;;;;11.32;69.93;99432.38;3146271;28;20056;-69
2022/11/06 05:25:34;;;;;;;86.17;43.27;;;;;;;11.33;70.10;99422.81;3145788;28;20114;-70
2022/11/06 05:27:06;;;;;;;98.97;45.97;;;;;;;11.32;69.94;99421.94;3145862;28;20504;-69
2022/11/06 05:28:38;;;;;;;96.85;45.47;;;;;;;11.36;69.98;99435.69;3146016;28;20109;-70
2022/11/06 05:30:11;;;;;;;88.32;43.47;;;;;;;11.37;70.07;99424.31;3145908;28;20117;-70
2022/11/06 05:31:43;;;;;;;95.80;44.63;;;;;;;11.37;70.01;99429.53;3148906;28;20052;-69
2022/11/06 05:33:15;;;;;;;89.90;43.63;;;;;;;11.31;69.67;99409.00;3152683;28;20126;-69
2022/11/06 05:34:47;;;;;;;93.70;44.05;;;;;;;11.42;69.55;99427.53;3145738;28;20047;-70
2022/11/06 05:36:18;;;;;;;91.72;44.15;;;;;;;11.41;69.59;99424.97;3147338;28;20437;-70
2022/11/06 05:37:51;;;;;;;95.82;45.30;;;;;;;11.42;69.75;99427.53;3145627;28;20615;-72
2022/11/06 05:39:24;;;;;;;92.25;44.80;;;;;;;11.31;69.75;99409.00;3153057;28;20097;-71
2022/11/06 05:40:56;;;;;;;98.63;45.38;;;;;;;11.49;69.56;99431.47;3145833;28;20111;-69
2022/11/06 05:42:28;;;;;;;87.35;44.22;;;;;;;11.52;69.57;99433.91;3145431;28;20048;-69
2022/11/06 05:43:59;;;;;;;100.05;44.28;;;;;;;11.53;69.85;99434.72;3145653;28;20114;-69
2022/11/06 05:45:31;;;;;;;86.32;42.35;;;;;;;11.56;69.92;99434.56;3145787;28;20052;-69
2022/11/06 05:47:03;;;;;;;92.57;45.45;;;;;;;11.61;69.43;99441.22;3153157;28;20105;-70
2022/11/06 05:48:35;;;;;;;94.82;43.53;;;;;;;11.19;69.80;99368.81;3152477;28;20201;-71
2022/11/06 05:50:08;;;;;;;89.45;44.08;;;;;;;11.59;69.82;99435.25;3145791;28;20090;-70
2022/11/06 05:51:39;;;;;;;85.95;43.17;;;;;;;11.52;69.48;99431.28;3145868;28;20094;-69
2022/11/06 05:53:11;;;;;;;92.38;43.90;;;;;;;11.65;69.67;99448.88;3145783;28;20052;-72
2022/11/06 05:54:45;;;;;;;85.75;43.45;;;;;;;11.67;69.81;99455.69;3145353;28;20059;-71
2022/11/06 05:56:16;;;;;;;89.28;44.60;;;;;;;11.68;69.77;99464.34;3145961;28;20048;-71
2022/11/06 05:57:48;;;;;;;85.03;42.38;;;;;;;11.68;69.66;99456.53;3148935;28;20117;-70
2022/11/06 05:59:20;;;;;;;89.47;44.63;;;;;;;11.74;69.45;99466.63;3148314;28;20137;-70
2022/11/06 06:00:52;;;;;;;82.13;41.90;;;;;;;11.76;69.63;99462.16;3148481;28;20052;-70
2022/11/06 06:02:24;;;;;;;85.32;42.25;;;;;;;11.77;69.50;99463.84;3152142;28;20051;-69
2022/11/06 06:03:56;;;;;;;88.70;44.05;;;;;;;11.79;69.60;99467.22;3149834;28;20117;-68
2022/11/06 06:05:28;;;;;;;91.20;43.85;;;;;;;11.81;69.47;99462.75;3148326;28;20472;-70
2022/11/06 06:07:00;;;;;;;98.80;44.40;;;;;;;11.83;69.21;99468.72;3148470;28;20449;-69
2022/11/06 06:08:31;;;;;;;89.68;43.53;;;;;;;11.86;69.25;99472.94;3150861;28;20056;-70
2022/11/06 06:10:06;;;;;;;90.18;43.50;;;;;;;11.90;69.21;99477.94;3149527;28;20048;-70
2022/11/06 06:11:38;;;;;;;89.13;43.72;;;;;;;11.87;69.36;99477.25;3148569;28;20141;-69
2022/11/06 06:13:10;;;;;;;85.03;43.15;;;;;;;11.86;69.16;99486.88;3150767;28;20133;-68
2022/11/06 06:14:42;;;;;;;84.63;43.28;;;;;;;11.87;69.50;99493.75;3151726;28;20048;-69
2022/11/06 06:16:14;;;;;;;84.65;41.92;;;;;;;11.86;69.24;99492.09;3145556;28;20044;-69
2022/11/06 06:17:46;;;;;;;84.35;42.78;;;;;;;11.84;69.50;99480.84;3148891;28;20104;-69
2022/11/06 06:19:21;;;;;;;88.15;43.05;;;;;;;11.84;69.59;99480.84;3149661;28;20059;-70
2022/11/06 06:20:53;;;;;;;92.18;41.72;;;;;;;11.84;69.51;99489.50;3146322;28;20061;-78
2022/11/06 06:22:25;;;;;;;85.25;42.30;;;;;;;11.81;69.41;99500.13;3148910;28;20052;-75
2022/11/06 06:23:56;;;;;;;86.47;40.75;;;;;;;11.84;69.11;99499.13;3151383;28;20761;-77
2022/11/06 06:25:30;;;;;;;86.32;42.90;;;;;;;11.86;69.10;99494.69;3156306;28;20048;-72
2022/11/06 06:27:03;;;;;;;96.43;43.03;;;;;;;11.88;69.02;99505.88;3151289;28;20045;-70
2022/11/06 06:28:34;;;;;;;89.18;41.22;;;;;;;11.90;69.01;99509.25;3147915;28;20067;-66
2022/11/06 06:30:07;;;;;;;84.70;42.72;;;;;;;11.92;68.88;99501.31;3146971;28;20060;-66
2022/11/06 06:31:39;;;;;;;78.00;41.35;;;;;;;11.91;69.04;99497.88;3146501;28;20048;-67
2022/11/06 06:33:11;;;;;;;89.75;41.85;;;;;;;11.94;68.82;99509.91;3150559;28;20130;-71
2022/11/06 06:34:43;;;;;;;85.93;42.15;;;;;;;11.73;68.77;99478.81;3149511;28;20590;-70
2022/11/06 06:36:15;;;;;;;87.65;41.20;;;;;;;11.91;68.52;99503.09;3144439;28;20059;-68
2022/11/06 06:37:52;;;;;;;81.22;40.63;;;;;;;11.89;68.46;99515.41;3149554;28;20048;-69
2022/11/06 06:39:24;;;;;;;89.68;42.30;;;;;;;11.83;68.67;99505.25;3151014;28;20147;-65
2022/11/06 06:41:00;;;;;;;87.43;42.35;;;;;;;11.90;68.80;99509.25;3149785;28;20470;-70
2022/11/06 06:42:32;;;;;;;89.38;43.58;;;;;;;11.90;68.82;99522.28;3152532;28;20056;-64
2022/11/06 06:44:04;;;;;;;90.95;43.03;;;;;;;11.71;69.12;99490.25;3149240;28;20140;-63
2022/11/06 06:45:36;;;;;;;94.28;42.97;;;;;;;11.93;69.38;99527.34;3143995;28;20440;-62
2022/11/06 06:47:08;;;;;;;91.13;44.10;;;;;;;11.96;69.31;99527.16;3143871;28;20102;-65
2022/11/06 06:48:40;;;;;;;89.20;44.58;;;;;;;11.74;69.22;99487.47;3145630;28;20047;-69
2022/11/06 06:50:12;;;;;;;94.10;46.33;;;;;;;11.96;69.36;99526.34;3146192;28;20095;-68
2022/11/06 06:51:44;;;;;;;102.28;48.72;;;;;;;11.96;69.77;99536.78;3142946;28;20051;-66
2022/11/06 06:53:16;;;;;;;172.93;85.18;;;;;;;11.98;69.60;99530.53;3143760;28;20045;-67
2022/11/06 06:54:48;;;;;;;200.98;104.00;;;;;;;12.02;69.83;99523.38;3153994;28;20546;-68
2022/11/06 06:56:21;;;;;;;183.85;95.65;;;;;;;12.04;69.81;99518.94;3155988;28;20181;-67
2022/11/06 06:57:57;;;;;;;155.23;76.65;;;;;;;12.11;69.32;99522.03;3154412;28;20052;-66
2022/11/06 06:59:29;;;;;;;172.63;88.43;;;;;;;12.09;69.31;99526.47;3155960;28;20378;-66
2022/11/06 07:01:02;;;;;;;101.38;49.50;;;;;;;12.18;69.39;99533.78;3153756;28;20144;-66
2022/11/06 07:02:33;;;;;;;89.28;45.22;;;;;;;12.21;69.35;99537.06;3144977;28;20708;-66
2022/11/06 07:04:05;;;;;;;94.50;43.65;;;;;;;12.25;69.30;99542.97;3153306;28;20078;-64
2022/11/06 07:05:38;;;;;;;92.60;43.80;;;;;;;12.30;68.95;99538.31;3146044;28;20064;-64
2022/11/06 07:07:10;;;;;;;103.13;52.00;;;;;;;12.27;68.94;99528.91;3145248;28;20178;-63
2022/11/06 07:08:42;;;;;;;96.03;44.70;;;;;;;12.31;69.26;99547.03;3145197;28;20422;-64
2022/11/06 07:10:14;;;;;;;153.10;80.45;;;;;;;12.32;69.17;99549.53;3146107;28;20109;-64
2022/11/06 07:11:47;;;;;;;102.90;52.35;;;;;;;12.35;68.93;99549.34;3135302;28;20619;-64
2022/11/06 07:13:19;;;;;;;;;;;;;;;12.33;68.94;99552.97;3134919;28;20052;-63
2022/11/06 07:14:51;;;;;;;80.45;37.10;;;;;;;12.34;69.10;99552.06;3134783;28;19924;-64
2022/11/06 07:16:24;;;;;;;78.43;38.50;;;;;;;12.38;68.52;99543.97;3135137;28;20057;-63
2022/11/06 07:17:56;;;;;;;76.55;38.60;;;;;;;12.42;68.80;99545.50;3139359;28;20060;-66
2022/11/06 07:19:27;;;;;;;73.43;36.92;;;;;;;12.44;68.27;99546.22;3150611;28;20044;-66
2022/11/06 07:21:00;;;;;;;75.22;38.88;;;;;;;12.51;68.18;99554.53;3139469;28;20076;-66
2022/11/06 07:22:31;;;;;;;77.15;38.30;;;;;;;12.51;68.45;99547.56;3139158;28;20476;-66
2022/11/06 07:24:04;;;;;;;75.35;37.20;;;;;;;12.55;68.07;99550.00;3139702;28;20048;-70
2022/11/06 07:25:36;;;;;;;76.22;37.17;;;;;;;12.19;68.38;99491.13;3139574;28;20063;-69
2022/11/06 07:27:10;;;;;;;83.03;37.35;;;;;;;12.59;68.34;99561.94;3143788;28;20134;-69
2022/11/06 07:28:41;;;;;;;;;;;;;;;12.55;68.53;99558.69;3139974;28;20082;-70